Time;durP1;ratioP1;P1;durP2;ratioP2;P2;SDS_P1;SDS_P2;PMS_P1;PMS_P2;Temp;Humidity;BMP_temperature;BMP_pressure;BME280_temperature;BME280_humidity;BME280_pressure;Samples;Min_cycle;Max_cycle;Signal;HPM_P1;HPM_P2
2022/10/14 04:03:31;;;;;;;6.90;5.20;;;13.00;99.90;;;;;;6130334;22;20430;-71
2022/10/14 04:05:57;;;;;;;11.67;6.37;;;13.00;99.90;;;;;;4994358;28;20481;-70
2022/10/14 04:08:22;;;;;;;6.57;4.90;;;13.00;99.90;;;;;;4995420;28;20178;-70
2022/10/14 04:10:52;;;;;;;7.83;5.67;;;13.00;99.90;;;;;;4995726;28;20274;-69
2022/10/14 04:13:18;;;;;;;5.80;5.20;;;13.00;99.90;;;;;;4995200;28;20184;-70
2022/10/14 04:15:44;;;;;;;6.60;5.90;;;13.00;99.90;;;;;;4994292;28;20438;-70
2022/10/14 04:18:10;;;;;;;5.70;5.20;;;13.00;99.90;;;;;;4979947;28;20592;-70
2022/10/14 04:20:36;;;;;;;11.67;5.57;;;12.90;99.90;;;;;;4976058;28;20597;-70
2022/10/14 04:23:02;;;;;;;6.80;5.97;;;12.90;99.90;;;;;;4975395;28;20518;-70
2022/10/14 04:25:28;;;;;;;7.30;5.10;;;13.00;99.90;;;;;;4983482;28;20476;-70
2022/10/14 04:27:53;;;;;;;6.70;5.20;;;12.90;99.90;;;;;;4994699;28;20191;-69
2022/10/14 04:30:19;;;;;;;11.67;5.93;;;12.90;99.90;;;;;;4995266;28;20297;-69
2022/10/14 04:32:45;;;;;;;9.70;5.23;;;12.80;99.90;;;;;;4994576;28;20540;-69
2022/10/14 04:35:11;;;;;;;8.00;5.80;;;12.80;99.90;;;;;;4976137;28;20738;-69
2022/10/14 04:37:37;;;;;;;6.63;5.97;;;12.80;99.90;;;;;;4977439;28;20585;-69
2022/10/14 04:40:03;;;;;;;6.17;4.80;;;12.80;99.90;;;;;;4995238;28;20446;-71
2022/10/14 04:42:29;;;;;;;4.87;4.37;;;12.80;99.90;;;;;;4994655;28;20194;-71
2022/10/14 04:44:55;;;;;;;5.70;4.90;;;12.90;99.90;;;;;;4994007;28;20469;-71
2022/10/14 04:47:20;;;;;;;6.73;4.63;;;12.80;99.90;;;;;;4994559;28;20644;-70
2022/10/14 04:49:46;;;;;;;5.77;5.00;;;12.80;99.90;;;;;;4994850;28;20257;-69
2022/10/14 04:52:11;;;;;;;5.37;4.50;;;12.80;99.90;;;;;;4994930;28;20179;-68
2022/10/14 04:54:38;;;;;;;5.40;4.70;;;12.80;99.90;;;;;;4993391;28;20664;-70
2022/10/14 04:57:04;;;;;;;5.90;4.50;;;12.80;99.90;;;;;;4975144;28;20473;-70
2022/10/14 04:59:29;;;;;;;8.53;6.73;;;12.80;99.90;;;;;;4975112;28;20179;-70
2022/10/14 05:02:06;;;;;;;7.30;5.40;;;12.90;99.90;;;;;;4975041;28;20254;-70
2022/10/14 05:04:31;;;;;;;7.00;6.30;;;12.80;99.90;;;;;;4971428;28;20221;-70
2022/10/14 05:06:57;;;;;;;5.17;4.30;;;12.80;99.90;;;;;;4958169;28;20944;-70
2022/10/14 05:09:23;;;;;;;6.73;4.23;;;12.80;99.90;;;;;;4974963;28;20519;-69
2022/10/14 05:11:51;;;;;;;8.10;4.63;;;12.80;99.90;;;;;;4966603;28;20185;-70
2022/10/14 05:14:17;;;;;;;10.43;5.20;;;12.80;99.90;;;;;;4974344;28;20445;-69
2022/10/14 05:16:45;;;;;;;5.03;4.47;;;12.80;99.90;;;;;;4984374;28;20431;-69
2022/10/14 05:19:13;;;;;;;5.70;4.60;;;12.80;99.90;;;;;;4977322;28;20524;-69
2022/10/14 05:21:38;;;;;;;5.50;4.23;;;12.80;99.90;;;;;;4976204;28;20419;-69
2022/10/14 05:24:05;;;;;;;6.57;4.33;;;12.80;99.90;;;;;;4974233;28;20856;-70
2022/10/14 05:26:34;;;;;;;6.57;5.23;;;12.80;99.90;;;;;;4987254;28;20565;-70
2022/10/14 05:29:01;;;;;;;6.90;5.63;;;12.80;99.90;;;;;;4988977;28;20433;-70
2022/10/14 05:31:27;;;;;;;5.20;4.50;;;12.80;99.90;;;;;;4968646;28;20437;-70
2022/10/14 05:33:53;;;;;;;6.30;4.37;;;12.70;99.90;;;;;;4973764;28;20438;-70
2022/10/14 05:36:18;;;;;;;6.00;4.07;;;12.80;99.90;;;;;;4991221;28;20531;-66
2022/10/14 05:38:45;;;;;;;7.13;5.10;;;12.70;99.90;;;;;;4993870;28;20178;-71
2022/10/14 05:41:15;;;;;;;6.67;4.13;;;12.80;99.90;;;;;;4959907;28;20271;-69
2022/10/14 05:43:50;;;;;;;7.93;5.20;;;12.80;99.90;;;;;;4990802;28;20537;-71
2022/10/14 05:46:16;;;;;;;9.53;5.80;;;12.80;99.90;;;;;;4992955;28;20471;-70
2022/10/14 05:48:44;;;;;;;5.23;4.73;;;12.80;99.90;;;;;;4993550;28;20457;-69
2022/10/14 05:51:14;;;;;;;7.10;4.93;;;12.80;99.90;;;;;;4959731;28;20193;-68
2022/10/14 05:53:42;;;;;;;4.87;4.40;;;12.80;99.90;;;;;;4965890;28;20804;-69
2022/10/14 05:56:09;;;;;;;6.50;4.70;;;12.80;99.90;;;;;;4976885;28;20473;-71
2022/10/14 05:58:35;;;;;;;7.00;4.90;;;12.80;99.90;;;;;;4986891;28;20449;-69
2022/10/14 06:01:06;;;;;;;6.57;5.10;;;12.80;99.90;;;;;;4940124;28;20236;-70
2022/10/14 06:03:31;;;;;;;5.43;4.90;;;12.80;99.90;;;;;;4973746;28;20334;-68
2022/10/14 06:05:57;;;;;;;6.27;4.53;;;12.80;99.90;;;;;;4973947;28;20468;-69
2022/10/14 06:08:23;;;;;;;8.30;5.40;;;12.80;99.90;;;;;;4973941;28;20450;-70
2022/10/14 06:10:50;;;;;;;5.67;5.07;;;12.90;99.90;;;;;;4972771;28;20506;-69
2022/10/14 06:13:22;;;;;;;7.90;5.97;;;12.90;99.90;;;;;;4973791;28;20445;-68
2022/10/14 06:15:48;;;;;;;10.30;5.37;;;12.90;99.90;;;;;;4957085;28;20485;-68
2022/10/14 06:18:16;;;;;;;8.47;6.77;;;13.00;99.90;;;;;;4977465;28;20912;-68
2022/10/14 06:20:41;;;;;;;11.93;6.53;;;13.00;99.90;;;;;;4977981;28;20216;-69
2022/10/14 06:23:07;;;;;;;11.47;7.13;;;13.00;99.90;;;;;;4994061;28;20516;-69
2022/10/14 06:25:34;;;;;;;8.17;6.80;;;13.00;99.90;;;;;;4997130;28;20206;-68
2022/10/14 06:28:05;;;;;;;9.67;6.30;;;13.10;99.90;;;;;;4997237;28;20408;-68
2022/10/14 06:30:32;;;;;;;8.37;6.10;;;13.10;99.90;;;;;;4997520;28;20417;-69
2022/10/14 06:32:58;;;;;;;10.83;7.67;;;13.10;99.90;;;;;;4982849;28;20425;-69
2022/10/14 06:35:25;;;;;;;10.60;7.03;;;13.10;99.90;;;;;;4977588;28;20453;-68
2022/10/14 06:37:50;;;;;;;7.50;6.37;;;13.20;99.90;;;;;;4975907;28;20188;-70
2022/10/14 06:40:16;;;;;;;11.83;6.70;;;13.20;99.90;;;;;;4977416;28;20922;-71
2022/10/14 06:42:42;;;;;;;7.50;6.50;;;13.30;99.90;;;;;;4987209;28;20187;-70
2022/10/14 06:45:08;;;;;;;11.00;7.40;;;13.30;99.90;;;;;;4996786;28;20493;-70
2022/10/14 06:47:34;;;;;;;6.90;6.20;;;13.30;99.90;;;;;;4979563;28;20176;-71
2022/10/14 06:49:59;;;;;;;6.87;6.17;;;13.30;99.90;;;;;;4977789;28;20418;-68
2022/10/14 06:52:25;;;;;;;7.93;6.93;;;13.30;99.90;;;;;;4991885;28;20249;-68
2022/10/14 06:54:50;;;;;;;8.43;7.20;;;13.40;99.90;;;;;;4996661;28;20729;-68
2022/10/14 06:57:16;;;;;;;9.27;6.83;;;13.40;99.90;;;;;;4995384;28;20186;-69
2022/10/14 06:59:43;;;;;;;8.10;6.63;;;13.50;99.90;;;;;;4996748;28;20185;-68
2022/10/14 07:02:11;;;;;;;9.30;7.23;;;13.50;99.90;;;;;;4983986;28;20176;-68
2022/10/14 07:04:38;;;;;;;7.23;5.97;;;13.60;99.90;;;;;;4959008;28;20992;-68
2022/10/14 07:07:06;;;;;;;13.80;6.90;;;13.60;99.90;;;;;;4976847;28;20435;-68
2022/10/14 07:09:33;;;;;;;10.00;7.60;;;13.60;99.90;;;;;;4977515;28;20415;-68
2022/10/14 07:12:00;;;;;;;12.70;9.73;;;13.60;99.90;;;;;;4985347;28;20423;-67
2022/10/14 07:14:25;;;;;;;8.93;7.33;;;13.70;99.90;;;;;;4978529;28;20516;-68
2022/10/14 07:16:52;;;;;;;13.47;9.30;;;13.70;99.90;;;;;;4996395;28;21002;-69
2022/10/14 07:19:18;;;;;;;13.40;8.67;;;13.80;99.90;;;;;;4996292;28;20179;-69
2022/10/14 07:21:47;;;;;;;10.57;8.63;;;13.90;99.90;;;;;;4991721;28;20958;-69
2022/10/14 07:24:12;;;;;;;18.17;11.53;;;13.90;99.90;;;;;;4977555;28;20200;-69
2022/10/14 07:26:38;;;;;;;9.43;7.73;;;14.00;99.90;;;;;;4977221;28;20517;-69
2022/10/14 07:29:05;;;;;;;11.30;8.30;;;14.00;99.90;;;;;;4975674;28;20179;-69
2022/10/14 07:31:31;;;;;;;8.80;6.67;;;14.00;99.90;;;;;;4959844;28;20427;-69
2022/10/14 07:33:57;;;;;;;9.10;6.50;;;14.00;99.90;;;;;;4995894;28;20446;-69
2022/10/14 07:36:22;;;;;;;8.70;7.10;;;14.10;99.90;;;;;;4996370;28;20811;-68
2022/10/14 07:38:51;;;;;;;8.27;6.80;;;14.10;99.90;;;;;;4996503;28;20417;-69
2022/10/14 07:41:20;;;;;;;8.50;6.57;;;14.00;99.90;;;;;;4996149;28;20254;-69
2022/10/14 07:44:13;;;;;;;9.77;7.33;;;14.00;99.90;;;;;;4993850;28;20457;-70
2022/10/14 07:46:41;;;;;;;9.60;5.73;;;14.20;99.90;;;;;;4993441;28;20482;-69
2022/10/14 07:49:15;;;;;;;7.23;5.70;;;14.20;99.90;;;;;;4995151;28;20462;-68
2022/10/14 07:51:41;;;;;;;6.97;6.10;;;14.40;99.90;;;;;;4977972;28;20903;-70
2022/10/14 07:54:11;;;;;;;7.57;5.87;;;14.50;99.90;;;;;;4975998;28;20494;-68
2022/10/14 07:56:41;;;;;;;8.27;6.20;;;14.70;99.90;;;;;;4976488;28;20419;-68
2022/10/14 07:59:07;;;;;;;7.40;6.37;;;14.90;99.90;;;;;;4976576;28;20432;-69
2022/10/14 08:01:33;;;;;;;6.43;5.23;;;15.10;99.90;;;;;;4976177;28;20487;-69
2022/10/14 08:03:59;;;;;;;10.03;5.20;;;15.40;99.90;;;;;;4975903;28;20211;-69
2022/10/14 08:06:24;;;;;;;7.03;5.20;;;15.60;99.90;;;;;;4975806;28;20214;-69
2022/10/14 08:08:50;;;;;;;6.50;4.73;;;15.80;99.90;;;;;;4976197;28;20422;-69
2022/10/14 08:11:22;;;;;;;5.57;4.37;;;16.00;99.90;;;;;;4958689;28;20205;-69
2022/10/14 08:13:48;;;;;;;5.37;3.73;;;16.20;99.90;;;;;;4991637;28;20297;-69
2022/10/14 08:16:22;;;;;;;4.40;3.53;;;16.30;99.90;;;;;;4989251;28;20415;-68
2022/10/14 08:19:06;;;;;;;5.33;4.13;;;16.40;99.90;;;;;;4974496;28;20555;-69
2022/10/14 08:21:32;;;;;;;4.23;3.83;;;16.50;99.90;;;;;;4975965;28;20412;-69
2022/10/14 08:23:59;;;;;;;4.60;3.50;;;16.50;99.90;;;;;;4941397;28;20538;-69
2022/10/14 08:26:30;;;;;;;4.00;3.60;;;16.40;99.90;;;;;;4976172;28;20974;-69
2022/10/14 08:28:57;;;;;;;3.73;3.43;;;16.40;99.90;;;;;;4975506;28;20433;-69
2022/10/14 08:31:22;;;;;;;4.63;4.13;;;16.30;99.90;;;;;;4975479;28;20410;-68
2022/10/14 08:33:52;;;;;;;4.23;3.10;;;16.20;99.90;;;;;;4975089;28;20435;-69
2022/10/14 08:36:42;;;;;;;5.47;3.90;;;16.20;99.90;;;;;;4980306;28;20181;-69
2022/10/14 08:39:08;;;;;;;3.70;3.23;;;16.10;99.90;;;;;;4994012;28;20424;-69
2022/10/14 08:41:42;;;;;;;6.30;3.07;;;16.10;99.90;;;;;;4994963;28;20418;-69
2022/10/14 08:44:16;;;;;;;4.13;3.70;;;16.10;99.90;;;;;;4994413;28;20203;-69
2022/10/14 08:47:03;;;;;;;4.20;3.80;;;16.20;99.90;;;;;;4986198;28;20443;-69
2022/10/14 08:49:42;;;;;;;5.47;4.30;;;16.20;99.90;;;;;;4954128;29;20542;-69
2022/10/14 08:52:16;;;;;;;5.07;4.40;;;16.30;99.90;;;;;;4954004;29;20489;-69
2022/10/14 08:54:48;;;;;;;3.77;3.37;;;16.20;99.90;;;;;;4953547;29;20442;-68
2022/10/14 08:57:19;;;;;;;5.27;3.67;;;16.20;99.90;;;;;;4937138;29;20991;-70
2022/10/14 08:59:46;;;;;;;5.23;3.60;;;16.20;99.90;;;;;;4953645;29;20421;-69
2022/10/14 09:02:39;;;;;;;10.20;4.07;;;16.30;99.90;;;;;;4936730;29;20421;-69
2022/10/14 09:05:05;;;;;;;3.80;3.43;;;16.40;99.90;;;;;;4953228;29;20629;-69
2022/10/14 09:07:32;;;;;;;4.23;3.83;;;16.50;99.90;;;;;;4953043;29;20437;-69
2022/10/14 09:10:05;;;;;;;4.37;3.37;;;16.60;99.90;;;;;;4953306;29;20445;-70
2022/10/14 09:12:34;;;;;;;4.20;3.47;;;16.70;99.90;;;;;;4921831;29;20435;-69
2022/10/14 09:15:15;;;;;;;5.30;4.83;;;16.80;99.90;;;;;;4953153;29;20507;-69
2022/10/14 09:17:51;;;;;;;3.83;3.53;;;16.90;99.90;;;;;;4953163;29;20436;-70
2022/10/14 09:20:21;;;;;;;5.33;3.47;;;17.00;99.90;;;;;;4952867;29;20419;-67
2022/10/14 09:23:05;;;;;;;6.00;3.20;;;17.10;99.90;;;;;;4953084;29;20416;-66
2022/10/14 09:25:33;;;;;;;3.57;2.77;;;17.20;99.90;;;;;;4956076;28;20474;-69
2022/10/14 09:27:59;;;;;;;5.03;3.63;;;17.30;99.90;;;;;;4977178;28;20430;-66
2022/10/14 09:30:27;;;;;;;4.03;3.60;;;17.30;99.90;;;;;;4974872;28;20497;-66
2022/10/14 09:32:54;;;;;;;12.63;4.57;;;17.20;99.90;;;;;;4974415;28;20172;-65
2022/10/14 09:35:31;;;;;;;3.60;3.30;;;17.10;99.90;;;;;;4993721;28;20409;-65
2022/10/14 09:37:57;;;;;;;5.17;3.50;;;17.10;99.90;;;;;;4993525;28;20404;-69
2022/10/14 09:40:36;;;;;;;7.13;3.90;;;17.10;99.90;;;;;;4994006;28;20480;-66
2022/10/14 09:43:08;;;;;;;4.43;3.30;;;17.00;99.90;;;;;;4992939;28;20827;-67
2022/10/14 09:46:01;;;;;;;4.83;4.30;;;17.10;99.90;;;;;;4994241;28;20477;-66
2022/10/14 09:48:33;;;;;;;3.60;3.30;;;17.10;99.90;;;;;;4993263;28;20405;-67
2022/10/14 09:51:01;;;;;;;4.53;4.13;;;17.10;99.90;;;;;;4995044;28;20417;-63
2022/10/14 09:53:44;;;;;;;5.30;4.13;;;17.20;99.90;;;;;;4993094;28;20426;-67
2022/10/14 09:56:10;;;;;;;3.60;3.30;;;17.30;99.90;;;;;;4978508;28;20825;-66
2022/10/14 09:58:42;;;;;;;4.20;3.80;;;17.30;99.90;;;;;;4978533;28;20428;-65
2022/10/14 10:01:15;;;;;;;4.30;3.90;;;17.30;99.90;;;;;;4961144;28;20451;-65
2022/10/14 10:03:42;;;;;;;5.90;3.23;;;17.30;99.90;;;;;;4983147;28;20420;-66
2022/10/14 10:06:10;;;;;;;5.03;3.27;;;17.20;99.90;;;;;;4997521;28;20483;-64
2022/10/14 10:08:54;;;;;;;3.97;3.57;;;17.30;99.90;;;;;;4998128;28;20390;-66
2022/10/14 10:11:32;;;;;;;4.17;3.70;;;17.30;99.90;;;;;;4997430;28;20798;-65
2022/10/14 10:13:58;;;;;;;5.03;3.97;;;17.30;99.90;;;;;;4988656;28;20926;-67
2022/10/14 10:16:33;;;;;;;4.83;3.87;;;17.30;99.90;;;;;;4976848;28;20490;-65
2022/10/14 10:19:20;;;;;;;4.80;4.00;;;17.40;99.90;;;;;;4978147;28;20399;-66
2022/10/14 10:21:46;;;;;;;3.47;3.13;;;17.40;99.90;;;;;;4978312;28;20414;-67
2022/10/14 10:24:22;;;;;;;4.83;4.13;;;17.60;99.90;;;;;;4985970;28;20484;-66
2022/10/14 10:26:49;;;;;;;2.97;2.77;;;17.70;99.90;;;;;;4996756;28;20725;-67
2022/10/14 10:29:30;;;;;;;5.57;4.03;;;17.80;99.90;;;;;;4996643;28;20395;-67
2022/10/14 10:32:06;;;;;;;8.53;4.03;;;18.00;99.90;;;;;;4997495;28;20405;-68
2022/10/14 10:34:41;;;;;;;3.97;3.57;;;18.10;99.90;;;;;;4984273;28;20439;-68
2022/10/14 10:37:23;;;;;;;4.17;2.97;;;18.20;99.90;;;;;;4977256;28;20398;-65
2022/10/14 10:40:02;;;;;;;2.53;2.30;;;18.30;99.90;;;;;;4977947;28;20515;-67
2022/10/14 10:42:47;;;;;;;3.40;2.70;;;18.40;99.90;;;;;;4960113;28;20403;-67
2022/10/14 10:45:35;;;;;;;6.43;2.60;;;18.50;99.90;;;;;;4994434;28;20469;-66
2022/10/14 10:48:25;;;;;;;3.47;2.90;;;18.60;99.90;;;;;;4996820;28;20401;-65
2022/10/14 10:51:12;;;;;;;2.77;2.23;;;18.60;99.90;;;;;;4993887;28;20415;-67
2022/10/14 10:54:01;;;;;;;2.70;2.50;;;18.70;99.90;;;;;;4976891;28;20992;-68
2022/10/14 10:56:49;;;;;;;3.10;2.80;;;19.00;99.90;;;;;;4977634;28;20419;-67
2022/10/14 10:59:17;;;;;;;2.67;2.47;;;19.40;99.90;;;;;;4977579;28;20375;-67
2022/10/14 11:01:52;;;;;;;3.50;2.60;;;19.60;99.90;;;;;;4976706;28;20420;-67
2022/10/14 11:04:53;;;;;;;3.80;3.10;;;19.80;99.90;;;;;;4976303;28;20801;-67
2022/10/14 11:13:20;;;;;;;3.73;2.77;;;20.10;99.90;;;;;;4977883;28;20381;-68
2022/10/14 11:15:56;;;;;;;4.80;3.00;;;20.00;99.90;;;;;;4981829;28;20403;-68
2022/10/14 11:18:44;;;;;;;3.03;2.83;;;19.90;99.90;;;;;;4992752;28;20486;-67
2022/10/14 11:21:36;;;;;;;3.97;3.57;;;19.70;99.90;;;;;;4982118;28;20423;-68
2022/10/14 11:24:23;;;;;;;3.77;3.37;;;19.50;99.90;;;;;;4995183;28;20442;-68
2022/10/14 11:27:12;;;;;;;7.63;3.67;;;19.40;99.90;;;;;;4986521;28;20775;-68
2022/10/14 11:30:02;;;;;;;4.47;3.00;;;19.40;99.90;;;;;;4991796;28;20423;-67
2022/10/14 11:32:48;;;;;;;6.87;5.50;;;19.30;99.90;;;;;;4979997;28;20813;-68
2022/10/14 11:35:36;;;;;;;3.10;2.80;;;19.20;99.90;;;;;;4995968;28;20423;-67
2022/10/14 11:38:52;;;;;;;7.30;3.50;;;19.20;99.90;;;;;;4995870;28;20761;-68
2022/10/14 11:41:58;;;;;;;5.97;3.90;;;19.00;99.90;;;;;;4917139;29;20430;-68
2022/10/14 11:44:36;;;;;;;3.60;3.30;;;18.60;99.90;;;;;;4916234;29;20450;-67
2022/10/14 11:47:13;;;;;;;4.40;3.47;;;18.30;99.90;;;;;;4981743;28;20423;-68
2022/10/14 11:49:48;;;;;;;4.83;4.10;;;18.10;99.90;;;;;;4994770;28;20403;-68
2022/10/14 11:52:19;;;;;;;3.47;3.03;;;17.90;99.90;;;;;;4972804;28;20422;-68
2022/10/14 11:54:51;;;;;;;3.93;3.63;;;17.80;99.90;;;;;;4972966;28;20979;-68
2022/10/14 11:57:44;;;;;;;8.53;6.30;;;17.60;99.90;;;;;;4974758;28;20411;-68
2022/10/14 12:03:47;;;;;;;3.30;3.00;;;17.60;99.90;;;;;;4987117;28;20435;-68
2022/10/14 12:06:22;;;;;;;4.70;3.87;;;17.70;99.90;;;;;;4995602;28;20555;-68
2022/10/14 12:09:02;;;;;;;5.00;3.60;;;17.70;99.90;;;;;;4995616;28;20409;-68
2022/10/14 12:11:36;;;;;;;5.37;3.77;;;17.80;99.90;;;;;;4995906;28;20892;-68
2022/10/14 12:14:33;;;;;;;4.20;3.80;;;17.90;99.90;;;;;;4975522;28;20439;-68
2022/10/14 12:17:00;;;;;;;5.30;3.00;;;18.10;99.90;;;;;;4976077;28;20440;-67
2022/10/14 12:19:28;;;;;;;3.70;2.83;;;18.20;99.90;;;;;;4975732;28;20423;-68
2022/10/14 12:21:53;;;;;;;2.80;2.60;;;18.40;99.90;;;;;;4974893;28;20438;-67
2022/10/14 12:24:27;;;;;;;2.50;2.30;;;18.50;99.90;;;;;;4975547;28;20424;-67
2022/10/14 12:27:08;;;;;;;3.17;2.67;;;18.70;99.90;;;;;;4975957;28;20186;-68
2022/10/14 12:29:36;;;;;;;2.73;2.53;;;18.90;99.90;;;;;;4975720;28;20406;-67
2022/10/14 12:32:22;;;;;;;2.90;2.23;;;19.00;99.90;;;;;;4985576;28;20777;-66
2022/10/14 12:35:00;;;;;;;2.10;2.00;;;19.10;99.90;;;;;;4995128;28;20850;-68
2022/10/14 12:37:30;;;;;;;2.20;2.10;;;19.20;99.90;;;;;;4995192;28;20417;-68
2022/10/14 12:40:02;;;;;;;2.13;1.97;;;19.30;99.90;;;;;;4995351;28;20407;-67
2022/10/14 12:42:33;;;;;;;1.90;1.80;;;19.40;99.90;;;;;;4981109;28;20419;-68
2022/10/14 12:45:12;;;;;;;2.07;1.87;;;19.50;99.90;;;;;;4975378;28;20438;-68
2022/10/14 12:47:38;;;;;;;2.30;2.10;;;19.50;99.90;;;;;;4982764;28;20463;-68
2022/10/14 12:50:13;;;;;;;2.03;1.90;;;19.60;99.90;;;;;;4983746;28;20415;-68
2022/10/14 12:52:39;;;;;;;1.77;1.67;;;19.60;99.90;;;;;;4989038;28;20917;-67
2022/10/14 12:55:21;;;;;;;2.80;1.30;;;19.60;99.90;;;;;;4994439;28;20442;-67
2022/10/14 12:58:15;;;;;;;2.37;1.67;;;19.60;99.90;;;;;;4994867;28;20415;-69
2022/10/14 13:00:40;;;;;;;2.10;2.00;;;19.50;99.90;;;;;;4994642;28;20836;-67
2022/10/14 13:03:18;;;;;;;1.67;1.57;;;19.50;99.90;;;;;;4975847;28;20486;-68
2022/10/14 13:05:45;;;;;;;1.73;1.60;;;19.50;99.90;;;;;;4957655;28;20674;-67
2022/10/14 13:08:22;;;;;;;1.60;1.50;;;19.40;99.90;;;;;;4975094;28;20404;-67
2022/10/14 13:11:08;;;;;;;1.73;1.60;;;19.40;99.90;;;;;;4975004;28;20435;-67
2022/10/14 13:13:37;;;;;;;1.60;1.50;;;19.40;99.90;;;;;;4976148;28;20430;-68
2022/10/14 13:16:03;;;;;;;1.63;1.50;;;19.30;99.90;;;;;;4973800;28;20415;-67
2022/10/14 13:18:34;;;;;;;2.43;1.53;;;19.30;99.90;;;;;;4975201;28;20427;-67
2022/10/14 13:21:01;;;;;;;2.90;2.70;;;19.20;99.90;;;;;;4957801;28;20759;-67
2022/10/14 13:23:30;;;;;;;1.73;1.63;;;19.20;99.90;;;;;;4993693;28;20489;-67
2022/10/14 13:26:14;;;;;;;2.97;2.60;;;19.20;99.90;;;;;;4993818;28;20459;-67
2022/10/14 13:29:06;;;;;;;1.50;1.40;;;19.20;99.90;;;;;;4994162;28;20435;-67
2022/10/14 13:31:43;;;;;;;3.10;1.87;;;19.30;99.90;;;;;;4981638;28;20467;-68
2022/10/14 13:34:38;;;;;;;1.83;1.73;;;19.40;99.90;;;;;;4974187;28;20451;-67
2022/10/14 13:37:32;;;;;;;1.67;1.57;;;19.30;99.90;;;;;;4963806;28;20412;-67
2022/10/14 13:40:11;;;;;;;2.17;1.20;;;19.40;99.90;;;;;;4974658;28;20557;-67
2022/10/14 13:42:38;;;;;;;1.33;1.30;;;19.30;99.90;;;;;;4974482;28;20423;-67
2022/10/14 13:45:13;;;;;;;1.50;1.40;;;19.30;99.90;;;;;;4974297;28;20987;-69
2022/10/14 13:47:47;;;;;;;3.13;1.70;;;19.20;99.90;;;;;;4974389;28;20418;-68
2022/10/14 13:50:17;;;;;;;1.63;1.53;;;19.10;99.90;;;;;;4977541;28;20418;-68
2022/10/14 13:52:55;;;;;;;1.53;1.43;;;19.00;99.90;;;;;;4993105;28;20399;-67
2022/10/14 13:55:23;;;;;;;1.43;1.30;;;18.90;99.90;;;;;;4993387;28;20431;-67
2022/10/14 13:58:15;;;;;;;1.53;1.27;;;18.90;99.90;;;;;;4975071;28;20418;-69
2022/10/14 14:00:49;;;;;;;1.87;1.70;;;18.90;99.90;;;;;;4985788;28;20774;-68
2022/10/14 14:03:38;;;;;;;1.60;1.40;;;19.00;99.90;;;;;;4974244;28;20534;-68
2022/10/14 14:06:13;;;;;;;1.10;1.10;;;19.00;99.90;;;;;;4974944;28;20426;-67
2022/10/14 14:08:53;;;;;;;1.10;1.10;;;19.00;99.90;;;;;;4974596;28;20458;-68
2022/10/14 14:11:34;;;;;;;7.30;1.67;;;19.00;99.90;;;;;;4986881;28;20464;-68
2022/10/14 14:14:08;;;;;;;2.00;1.27;;;19.00;99.90;;;;;;4993423;28;20562;-68
2022/10/14 14:16:38;;;;;;;1.20;1.20;;;19.00;99.90;;;;;;4993930;28;20427;-67
2022/10/14 14:19:04;;;;;;;1.43;1.40;;;19.00;99.90;;;;;;4993810;28;20385;-69
2022/10/14 14:21:31;;;;;;;2.43;1.60;;;18.90;99.90;;;;;;4979548;28;20827;-68
2022/10/14 14:24:00;;;;;;;1.63;1.53;;;18.90;99.90;;;;;;4973706;28;20938;-68
2022/10/14 14:26:33;;;;;;;1.00;0.90;;;18.90;99.90;;;;;;4974189;28;20451;-68
2022/10/14 14:28:58;;;;;;;1.33;1.23;;;18.80;99.90;;;;;;4974288;28;20905;-69
2022/10/14 14:31:26;;;;;;;1.50;1.40;;;18.70;99.90;;;;;;4974660;28;20422;-69
2022/10/14 14:33:58;;;;;;;1.30;1.30;;;18.60;99.90;;;;;;4973853;28;20610;-68
2022/10/14 14:36:27;;;;;;;1.87;1.20;;;18.40;99.90;;;;;;4974305;28;20382;-67
2022/10/14 14:38:56;;;;;;;1.23;1.00;;;18.20;99.90;;;;;;4976444;28;20414;-67
2022/10/14 14:41:24;;;;;;;1.40;1.30;;;18.00;99.90;;;;;;4977788;28;20423;-68
2022/10/14 14:43:52;;;;;;;1.87;1.30;;;17.80;99.90;;;;;;4977385;28;20431;-67
2022/10/14 14:46:23;;;;;;;2.13;1.50;;;17.70;99.90;;;;;;4977593;28;20486;-67
2022/10/14 14:48:53;;;;;;;1.37;1.27;;;17.50;99.90;;;;;;4976901;28;20988;-68
2022/10/14 14:51:20;;;;;;;0.83;0.80;;;17.50;99.90;;;;;;4988651;28;20777;-68
2022/10/14 14:53:52;;;;;;;1.60;1.27;;;17.40;99.90;;;;;;4996347;28;20784;-68
2022/10/14 14:56:33;;;;;;;2.63;1.80;;;17.40;99.90;;;;;;4989939;28;20422;-68
2022/10/14 14:59:08;;;;;;;1.60;1.50;;;17.40;99.90;;;;;;4977578;28;20411;-68
2022/10/14 15:01:33;;;;;;;2.30;1.20;;;17.30;99.90;;;;;;4977831;28;20479;-68
2022/10/14 15:04:06;;;;;;;1.27;1.20;;;17.30;99.90;;;;;;4976654;28;20431;-68
2022/10/14 15:06:32;;;;;;;1.73;1.63;;;17.30;99.90;;;;;;4977092;28;20218;-68
2022/10/14 15:09:09;;;;;;;1.97;1.87;;;17.20;99.90;;;;;;4977566;28;20796;-67
2022/10/14 15:11:48;;;;;;;1.43;1.23;;;17.10;99.90;;;;;;4977065;28;20430;-67
2022/10/14 15:14:29;;;;;;;1.90;1.63;;;17.10;99.90;;;;;;4976584;28;20402;-68
2022/10/14 15:16:55;;;;;;;1.90;1.70;;;17.10;99.90;;;;;;4977235;28;20536;-67
2022/10/14 15:19:31;;;;;;;3.73;1.30;;;17.10;99.90;;;;;;4977142;28;20918;-67
2022/10/14 15:22:18;;;;;;;1.97;1.83;;;17.10;99.90;;;;;;4989518;28;20315;-66
2022/10/14 15:25:10;;;;;;;1.80;1.70;;;17.10;99.90;;;;;;4995896;28;20428;-67
2022/10/14 15:27:36;;;;;;;1.70;1.60;;;17.10;99.90;;;;;;4988020;28;20422;-67
2022/10/14 15:30:21;;;;;;;2.73;1.70;;;17.10;99.90;;;;;;4976831;28;20764;-67
2022/10/14 15:32:48;;;;;;;1.83;1.73;;;17.00;99.90;;;;;;4976513;28;20674;-67
2022/10/14 15:35:15;;;;;;;1.93;1.83;;;17.00;99.90;;;;;;4976850;28;20426;-67
2022/10/14 15:37:40;;;;;;;2.70;2.00;;;17.00;99.90;;;;;;4983807;28;20429;-67
2022/10/14 15:40:12;;;;;;;1.70;1.60;;;17.00;99.90;;;;;;4996040;28;20706;-67
2022/10/14 15:42:38;;;;;;;3.27;1.67;;;17.00;99.90;;;;;;4995693;28;20704;-66
2022/10/14 15:45:04;;;;;;;1.67;1.53;;;16.90;99.90;;;;;;4996082;28;20540;-67
2022/10/14 15:47:30;;;;;;;1.67;1.57;;;16.90;99.90;;;;;;4990167;28;20193;-68
2022/10/14 15:49:56;;;;;;;3.73;1.67;;;16.80;99.90;;;;;;4976527;28;20812;-68
2022/10/14 15:52:21;;;;;;;1.40;1.30;;;16.80;99.90;;;;;;4976205;28;20530;-68
2022/10/14 15:54:48;;;;;;;1.50;1.40;;;16.80;99.90;;;;;;4976657;28;20432;-67
2022/10/14 15:57:14;;;;;;;1.53;1.40;;;16.80;99.90;;;;;;4984911;28;20190;-65
2022/10/14 15:59:40;;;;;;;1.63;1.53;;;16.70;99.90;;;;;;4994100;28;20424;-67
2022/10/14 16:02:19;;;;;;;1.60;1.50;;;16.70;99.90;;;;;;4996091;28;20396;-66
2022/10/14 16:04:45;;;;;;;2.40;1.70;;;16.70;99.90;;;;;;4977219;28;20482;-67
2022/10/14 16:07:13;;;;;;;1.77;1.67;;;16.60;99.90;;;;;;4981635;28;20465;-69
2022/10/14 16:09:39;;;;;;;1.80;1.70;;;16.60;99.90;;;;;;4996276;28;20422;-67
2022/10/14 16:12:11;;;;;;;3.70;1.63;;;16.50;99.90;;;;;;4996471;28;20412;-67
2022/10/14 16:14:37;;;;;;;1.20;1.10;;;16.50;99.90;;;;;;4995539;28;20556;-68
2022/10/14 16:17:02;;;;;;;1.03;1.00;;;16.40;99.90;;;;;;4995249;28;20415;-66
2022/10/14 16:19:28;;;;;;;1.37;1.27;;;16.40;99.90;;;;;;4995860;28;20177;-62
2022/10/14 16:21:53;;;;;;;1.47;1.37;;;16.40;99.90;;;;;;4996386;28;20172;-65
2022/10/14 16:24:21;;;;;;;1.13;1.10;;;16.40;99.90;;;;;;4995984;28;20203;-73
2022/10/14 16:26:50;;;;;;;1.60;1.50;;;16.30;99.90;;;;;;4995892;28;20659;-67
2022/10/14 16:29:20;;;;;;;1.63;1.53;;;16.40;99.90;;;;;;4989811;28;20982;-66
2022/10/14 16:31:49;;;;;;;1.50;1.40;;;16.30;99.90;;;;;;4984313;28;20751;-65
2022/10/14 16:34:19;;;;;;;1.67;1.57;;;16.30;99.90;;;;;;4983226;28;20439;-67
2022/10/14 16:36:45;;;;;;;3.10;1.30;;;16.30;99.90;;;;;;4994905;28;20452;-66
2022/10/14 16:39:11;;;;;;;1.23;1.13;;;16.20;99.90;;;;;;4998998;28;20420;-67
2022/10/14 16:41:37;;;;;;;1.27;1.27;;;16.20;99.90;;;;;;4995045;28;20429;-64
2022/10/14 16:44:04;;;;;;;1.50;1.40;;;16.20;99.90;;;;;;4993134;28;20476;-67
2022/10/14 16:49:14;;;;;;;1.90;1.80;;;16.10;99.90;;;;;;4977083;28;20525;-67
2022/10/14 16:51:41;;;;;;;2.83;2.03;;;16.20;99.90;;;;;;4975351;28;20401;-67
2022/10/14 16:54:07;;;;;;;3.10;1.70;;;16.10;99.90;;;;;;4975576;28;20686;-68
2022/10/14 16:56:51;;;;;;;1.90;1.70;;;16.10;99.90;;;;;;4982474;28;20433;-68
2022/10/14 16:59:17;;;;;;;1.70;1.60;;;16.00;99.90;;;;;;4991745;28;20175;-68
2022/10/14 17:01:42;;;;;;;2.37;1.87;;;16.00;99.90;;;;;;4985060;28;20443;-66
2022/10/14 17:04:10;;;;;;;1.50;1.40;;;16.00;99.90;;;;;;4993473;28;20444;-69
2022/10/14 17:06:35;;;;;;;1.10;1.10;;;16.00;99.90;;;;;;4993866;28;20247;-68
2022/10/14 17:09:01;;;;;;;1.40;1.40;;;15.90;99.90;;;;;;4987488;28;20825;-69
2022/10/14 17:11:27;;;;;;;4.33;1.60;;;15.90;99.90;;;;;;4979153;28;20199;-70
2022/10/14 17:13:57;;;;;;;1.30;1.20;;;15.90;99.90;;;;;;4992358;28;20214;-66
2022/10/14 17:16:24;;;;;;;1.40;1.30;;;15.80;99.90;;;;;;4975098;28;20374;-68
2022/10/14 17:18:50;;;;;;;2.37;1.47;;;15.90;99.90;;;;;;4975164;28;20787;-67
2022/10/14 17:21:17;;;;;;;2.07;1.20;;;15.80;99.90;;;;;;4975349;28;20439;-65
2022/10/14 17:23:43;;;;;;;0.83;0.83;;;15.80;99.90;;;;;;4974553;28;20418;-67